Time;durP1;ratioP1;P1;durP2;ratioP2;P2;SDS_P1;SDS_P2;PMS_P1;PMS_P2;Temp;Humidity;BMP_temperature;BMP_pressure;BME280_temperature;BME280_humidity;BME280_pressure;Samples;Min_cycle;Max_cycle;Signal;HPM_P1;HPM_P2
2023/03/04 07:52:15;;;;;;;;;;;;;;;7.48;63.90;97291.09;4223071;27;10367;-62
2023/03/04 07:54:19;;;;;;;;;;;;;;;7.77;63.32;97287.19;4231412;28;5749;-63
2023/03/04 07:56:23;;;;;;;;;;;;;;;8.00;63.24;97292.63;4228107;28;5765;-63
2023/03/04 07:58:26;;;;;;;;;;;;;;;8.17;62.69;97292.47;4214324;28;5728;-63
2023/03/04 08:00:29;;;;;;;;;;;;;;;8.32;62.48;97291.78;4224965;28;5763;-63
2023/03/04 08:02:32;;;;;;;;;;;;;;;8.44;62.25;97295.75;4231514;28;5685;-62
2023/03/04 08:04:35;;;;;;;;;;;;;;;8.53;62.22;97289.47;4231116;28;5727;-63
2023/03/04 08:06:40;;;;;;;;;;;;;;;8.63;62.14;97294.56;4225335;28;5684;-63
2023/03/04 08:08:44;;;;;;;;;;;;;;;8.70;61.83;97288.44;4228863;28;6318;-62
2023/03/04 08:10:47;;;;;;;;;;;;;;;8.82;61.83;97306.53;4229696;28;5695;-61
2023/03/04 08:12:50;;;;;;;;;;;;;;;8.89;61.82;97304.84;4225408;28;5740;-62
2023/03/04 08:14:53;;;;;;;;;;;;;;;8.90;61.34;97295.94;4225215;28;5692;-69
2023/03/04 08:16:59;;;;;;;;;;;;;;;8.94;61.71;97308.63;4228294;28;5725;-65
2023/03/04 08:19:05;;;;;;;;;;;;;;;8.99;61.72;97301.03;4225456;28;5226;-66
2023/03/04 08:21:09;;;;;;;;;;;;;;;9.04;61.57;97300.50;4221139;28;7663;-70
2023/03/04 08:23:12;;;;;;;;;;;;;;;9.09;61.32;97305.28;4229707;28;5681;-67
2023/03/04 08:25:17;;;;;;;;;;;;;;;9.12;61.35;97300.47;4229212;28;5707;-66
2023/03/04 08:27:20;;;;;;;;;;;;;;;9.16;61.14;97304.41;4230023;28;5935;-68
2023/03/04 08:29:24;;;;;;;;;;;;;;;9.18;60.99;97304.25;4215574;28;7229;-65
2023/03/04 08:31:27;;;;;;;;;;;;;;;9.18;60.76;97310.38;4222568;28;5613;-63
2023/03/04 08:33:31;;;;;;;;;;;;;;;9.20;61.16;97312.81;4222567;28;5625;-70
2023/03/04 08:35:39;;;;;;;;;;;;;;;9.21;60.93;97309.19;4224705;28;7027;-63
2023/03/04 08:37:43;;;;;;;;;;;;;;;9.24;60.65;97308.84;4226573;28;5715;-66
2023/03/04 08:39:46;;;;;;;;;;;;;;;9.21;60.56;97315.28;4215487;28;5696;-67
2023/03/04 08:41:51;;;;;;;;;;;;;;;9.19;60.58;97316.47;4226200;28;5707;-66
2023/03/04 08:43:53;;;;;;;;;;;;;;;9.18;60.80;97315.63;4227893;28;5636;-67
2023/03/04 08:45:57;;;;;;;;;;;;;;;9.19;60.35;97309.38;4227829;28;5629;-68
2023/03/04 08:48:00;;;;;;;;;;;;;;;9.23;60.59;97315.94;4225397;28;5724;-67
2023/03/04 08:50:03;;;;;;;;;;;;;;;9.24;60.04;97314.13;4222222;28;5647;-66
2023/03/04 08:52:06;;;;;;;;;;;;;;;9.27;60.14;97313.75;4221143;28;5624;-67
2023/03/04 08:54:09;;;;;;;;;;;;;;;9.27;60.07;97304.03;4207200;28;5736;-66
2023/03/04 08:56:13;;;;;;;;;;;;;;;9.24;60.23;97312.28;4216066;28;5629;-66
2023/03/04 08:58:18;;;;;;;;;;;;;;;9.24;60.01;97314.94;4215798;28;5616;-62
2023/03/04 09:00:21;;;;;;;;;;;;;;;9.26;59.83;97315.59;4217478;28;5716;-63
2023/03/04 09:02:23;;;;;;;;;;;;;;;9.21;59.65;97310.00;4217861;28;5613;-63
2023/03/04 09:04:26;;;;;;;;;;;;;;;9.21;59.82;97309.19;4213733;28;5742;-62
2023/03/04 09:06:29;;;;;;;;;;;;;;;9.21;59.76;97310.00;4219206;28;5698;-65
2023/03/04 09:08:32;;;;;;;;;;;;;;;9.23;59.69;97317.75;4219396;28;5612;-63
2023/03/04 09:10:35;;;;;;;;;;;;;;;9.23;59.35;97320.38;4219177;28;5745;-64
2023/03/04 09:12:38;;;;;;;;;;;;;;;9.22;59.52;97322.22;4217482;28;5629;-64
2023/03/04 09:14:42;;;;;;;;;;;;;;;9.21;59.27;97314.47;4219309;28;5632;-63
2023/03/04 09:16:45;;;;;;;;;;;;;;;9.22;59.31;97316.94;4218363;28;5830;-63
2023/03/04 09:18:48;;;;;;;;;;;;;;;9.25;58.95;97321.03;4213649;28;5695;-63
2023/03/04 09:20:51;;;;;;;;;;;;;;;9.22;59.31;97313.47;4215966;28;5616;-63
2023/03/04 09:22:54;;;;;;;;;;;;;;;9.25;58.80;97318.41;4211210;28;6370;-63
2023/03/04 09:24:57;;;;;;;;;;;;;;;9.25;58.75;97319.22;4215524;28;5612;-62
2023/03/04 09:27:00;;;;;;;;;;;;;;;9.26;58.90;97323.50;4216579;28;5685;-64
2023/03/04 09:29:04;;;;;;;;;;;;;;;9.29;58.64;97320.53;4217319;28;5847;-66
2023/03/04 09:31:13;;;;;;;;;;;;;;;9.29;58.77;97312.63;4205944;28;5077;-63
2023/03/04 09:33:16;;;;;;;;;;;;;;;9.34;58.46;97314.72;4211875;28;5633;-65
2023/03/04 09:35:19;;;;;;;;;;;;;;;9.35;58.47;97311.09;4216382;28;5613;-61
2023/03/04 09:37:22;;;;;;;;;;;;;;;9.40;58.19;97316.69;4217957;28;5798;-60
2023/03/04 09:39:25;;;;;;;;;;;;;;;9.45;58.32;97309.06;4206106;28;5647;-60
2023/03/04 09:41:36;;;;;;;;;;;;;;;9.51;58.08;97313.66;4217749;28;5737;-61
2023/03/04 09:43:40;;;;;;;;;;;;;;;9.54;57.90;97305.38;4218712;28;5689;-61
2023/03/04 09:45:47;;;;;;;;;;;;;;;9.59;58.08;97310.13;4216889;28;5684;-60
2023/03/04 09:47:54;;;;;;;;;;;;;;;9.60;57.74;97298.56;4211857;28;5697;-60
2023/03/04 09:50:00;;;;;;;;;;;;;;;9.61;57.62;97300.22;4205203;28;5743;-61
2023/03/04 09:52:13;;;;;;;;;;;;;;;9.65;57.86;97312.09;4216723;28;5626;-60
2023/03/04 09:54:25;;;;;;;;;;;;;;;9.65;57.37;97303.34;4216231;28;5712;-61
2023/03/04 09:56:28;;;;;;;;;;;;;;;9.64;57.68;97294.63;4210380;28;5621;-63
2023/03/04 09:58:43;;;;;;;;;;;;;;;9.67;57.43;97304.00;4216778;28;5704;-62
2023/03/04 10:00:51;;;;;;;;;;;;;;;9.70;57.12;97301.00;4193931;28;5960;-61
2023/03/04 10:03:15;;;;;;;;;;;;;;;9.68;57.37;97301.19;4216413;28;5644;-64
2023/03/04 10:05:21;;;;;;;;;;;;;;;9.69;57.07;97300.19;4201827;28;5628;-63
2023/03/04 10:07:28;;;;;;;;;;;;;;;9.68;57.11;97301.19;4211756;28;5477;-66
2023/03/04 10:09:43;;;;;;;;;;;;;;;9.68;56.90;97295.06;4214652;28;7171;-67
2023/03/04 10:11:50;;;;;;;;;;;;;;;9.65;56.98;97298.91;4212379;28;7164;-66
2023/03/04 10:14:04;;;;;;;;;;;;;;;9.64;56.72;97286.69;4216983;28;5612;-72
2023/03/04 10:16:11;;;;;;;;;;;;;;;9.66;56.74;97289.16;4209774;28;6476;-66
2023/03/04 10:18:21;;;;;;;;;;;;;;;9.66;56.60;97292.63;4209290;28;5687;-70
2023/03/04 10:20:28;;;;;;;;;;;;;;;9.62;56.61;97283.38;4209768;28;5810;-75
2023/03/04 10:22:35;;;;;;;;;;;;;;;9.63;56.85;97285.06;4211033;28;5767;-65
2023/03/04 10:24:38;;;;;;;;;;;;;;;9.63;56.40;97280.59;4212925;28;5617;-63
2023/03/04 10:26:44;;;;;;;;;;;;;;;9.66;56.61;97275.94;4195611;28;6346;-62
2023/03/04 10:28:47;;;;;;;;;;;;;;;9.67;56.56;97273.13;4207745;28;5636;-64
2023/03/04 10:30:56;;;;;;;;;;;;;;;9.73;56.31;97277.69;4191187;28;5763;-63
2023/03/04 10:32:59;;;;;;;;;;;;;;;9.75;56.31;97275.72;4202569;28;5626;-68
2023/03/04 10:35:07;;;;;;;;;;;;;;;9.70;56.23;97267.50;4209647;28;5746;-67
2023/03/04 10:37:10;;;;;;;;;;;;;;;9.73;56.15;97266.31;4214026;28;5876;-65
2023/03/04 10:39:18;;;;;;;;;;;;;;;9.76;56.47;97265.97;4213986;28;5736;-65
2023/03/04 10:41:24;;;;;;;;;;;;;;;9.76;56.23;97261.53;4204128;28;5642;-64
2023/03/04 10:43:28;;;;;;;;;;;;;;;9.79;56.37;97261.16;4210187;28;5616;-64
2023/03/04 10:45:34;;;;;;;;;;;;;;;9.80;56.40;97262.81;4206673;28;5631;-63
2023/03/04 10:47:37;;;;;;;;;;;;;;;9.82;56.04;97263.44;4202208;28;5548;-65
2023/03/04 10:49:51;;;;;;;;;;;;;;;9.82;56.06;97255.53;4204347;28;5827;-64
2023/03/04 10:52:02;;;;;;;;;;;;;;;9.84;55.93;97253.53;4202204;28;5628;-64
2023/03/04 10:54:09;;;;;;;;;;;;;;;9.86;55.86;97256.81;4212252;28;5721;-66
2023/03/04 10:56:35;;;;;;;;;;;;;;;9.85;55.60;97251.69;4204525;28;5731;-65
2023/03/04 10:58:38;;;;;;;;;;;;;;;9.86;55.78;97256.00;4200519;28;5845;-70
2023/03/04 11:00:41;;;;;;;;;;;;;;;9.88;55.82;97254.81;4208822;28;5800;-72
2023/03/04 11:02:46;;;;;;;;;;;;;;;9.88;55.86;97254.81;4212573;28;5819;-72
2023/03/04 11:04:55;;;;;;;;;;;;;;;9.91;55.72;97246.53;4208930;28;5699;-68
2023/03/04 11:06:59;;;;;;;;;;;;;;;9.93;55.69;97241.91;4205193;28;5778;-65
2023/03/04 11:09:02;;;;;;;;;;;;;;;9.92;55.35;97234.97;4208556;28;5800;-68
2023/03/04 11:11:22;;;;;;;;;;;;;;;9.90;55.36;97236.16;4207637;28;5738;-75
2023/03/04 11:13:26;;;;;;;;;;;;;;;9.92;55.64;97240.25;4205068;28;6642;-63
2023/03/04 11:15:32;;;;;;;;;;;;;;;9.97;55.40;97237.09;4201988;28;5631;-73
2023/03/04 11:17:48;;;;;;;;;;;;;;;9.99;55.25;97240.38;4206814;28;5776;-70
2023/03/04 11:19:54;;;;;;;;;;;;;;;10.01;55.30;97237.56;4210299;28;6485;-62
2023/03/04 11:22:00;;;;;;;;;;;;;;;10.03;55.38;97235.56;4211066;28;6326;-63
2023/03/04 11:24:08;;;;;;;;;;;;;;;10.05;55.03;97231.72;4203975;28;5272;-63
2023/03/04 11:26:35;;;;;;;;;;;;;;;10.08;55.15;97226.09;4207813;28;7684;-66
2023/03/04 11:28:44;;;;;;;;;;;;;;;10.14;55.04;97227.19;4210572;28;5781;-63
2023/03/04 11:30:51;;;;;;;;;;;;;;;10.20;54.89;97226.50;4209079;28;5755;-63
2023/03/04 11:33:01;;;;;;;;;;;;;;;10.23;54.89;97225.34;4214015;28;5662;-68
2023/03/04 11:35:15;;;;;;;;;;;;;;;10.28;54.72;97223.78;4205783;28;5783;-62
2023/03/04 11:37:25;;;;;;;;;;;;;;;10.31;54.64;97220.78;4206868;28;5679;-65
2023/03/04 11:39:35;;;;;;;;;;;;;;;10.24;54.74;97219.88;4215959;28;5725;-63
2023/03/04 11:41:45;;;;;;;;;;;;;;;10.24;54.82;97219.03;4204637;28;5744;-64
2023/03/04 11:43:48;;;;;;;;;;;;;;;10.20;54.91;97213.28;4204885;28;6505;-61
2023/03/04 11:46:20;;;;;;;;;;;;;;;10.17;54.90;97214.44;4216759;28;6107;-61
2023/03/04 11:48:38;;;;;;;;;;;;;;;10.17;54.75;97210.97;4209987;28;5613;-63
2023/03/04 11:50:49;;;;;;;;;;;;;;;10.16;54.83;97204.88;4211760;28;5605;-67
2023/03/04 11:53:40;;;;;;;;;;;;;;;10.24;54.48;97201.38;4213679;28;5703;-68
2023/03/04 11:55:51;;;;;;;;;;;;;;;10.27;54.64;97206.28;4194774;28;5718;-67
2023/03/04 11:58:06;;;;;;;;;;;;;;;10.32;54.43;97193.38;4216136;28;5662;-66
2023/03/04 12:00:34;;;;;;;;;;;;;;;10.32;54.23;97203.94;4215340;28;5716;-66
2023/03/04 12:02:48;;;;;;;;;;;;;;;10.34;54.56;97188.72;4210822;28;5690;-77
2023/03/04 12:05:24;;;;;;;;;;;;;;;10.38;54.61;97183.88;4205345;28;6466;-63
2023/03/04 12:07:46;;;;;;;;;;;;;;;10.42;54.29;97180.69;4203618;28;5960;-68
2023/03/04 12:10:04;;;;;;;;;;;;;;;10.45;54.26;97182.97;4215026;28;5678;-64
2023/03/04 12:12:25;;;;;;;;;;;;;;;10.48;54.02;97182.59;4211456;28;5715;-71
2023/03/04 12:14:34;;;;;;;;;;;;;;;10.50;54.00;97170.00;4196560;28;5632;-77
2023/03/04 12:17:23;;;;;;;;;;;;;;;10.56;53.86;97167.66;4202016;28;5850;-79
2023/03/04 12:19:34;;;;;;;;;;;;;;;10.56;53.87;97157.09;4192913;28;6236;-71
2023/03/04 12:21:56;;;;;;;;;;;;;;;10.59;53.77;97148.78;4206677;28;6502;-72
2023/03/04 12:24:22;;;;;;;;;;;;;;;10.64;53.71;97149.03;4211461;28;5659;-72
2023/03/04 12:26:37;;;;;;;;;;;;;;;10.66;53.66;97152.34;4206982;28;5833;-72
2023/03/04 12:28:56;;;;;;;;;;;;;;;10.68;53.75;97151.13;4211019;28;6409;-72
2023/03/04 12:31:13;;;;;;;;;;;;;;;10.74;53.62;97144.28;4215072;28;5612;-71
2023/03/04 12:33:31;;;;;;;;;;;;;;;10.79;53.23;97136.63;4212787;28;5842;-72
2023/03/04 12:35:38;;;;;;;;;;;;;;;10.79;53.27;97136.63;4213781;28;5227;-72
2023/03/04 12:37:59;;;;;;;;;;;;;;;10.77;53.39;97122.78;4217139;28;5617;-72
2023/03/04 12:40:23;;;;;;;;;;;;;;;10.76;53.16;97129.88;4212674;28;5703;-71
2023/03/04 12:42:37;;;;;;;;;;;;;;;10.74;53.38;97115.19;4212144;28;5826;-72
2023/03/04 12:44:46;;;;;;;;;;;;;;;10.73;53.57;97121.47;4215549;28;6073;-72
2023/03/04 12:47:10;;;;;;;;;;;;;;;10.72;53.41;97122.50;4208960;28;5640;-71
2023/03/04 12:49:26;;;;;;;;;;;;;;;10.74;53.28;97116.00;4192205;28;5654;-71
2023/03/04 12:51:36;;;;;;;;;;;;;;;10.76;53.50;97113.19;4212651;28;6369;-71
2023/03/04 12:53:45;;;;;;;;;;;;;;;10.76;53.12;97111.38;4213839;28;5685;-71
2023/03/04 12:55:49;;;;;;;;;;;;;;;10.75;53.29;97098.31;4219151;28;6069;-71
2023/03/04 12:57:56;;;;;;;;;;;;;;;10.75;52.99;97095.66;4215150;28;5632;-66
2023/03/04 13:00:09;;;;;;;;;;;;;;;10.75;53.35;97098.31;4217450;28;5613;-66
2023/03/04 13:02:31;;;;;;;;;;;;;;;10.75;52.95;97090.38;4202709;28;5703;-65
2023/03/04 13:04:49;;;;;;;;;;;;;;;10.76;53.13;97089.41;4213432;28;5808;-66
2023/03/04 13:07:08;;;;;;;;;;;;;;;10.73;53.33;97085.28;4217308;28;5818;-66
2023/03/04 13:09:21;;;;;;;;;;;;;;;10.73;52.92;97077.34;4206184;28;5620;-71
2023/03/04 13:11:56;;;;;;;;;;;;;;;10.76;53.10;97076.19;4211730;28;5621;-72
2023/03/04 13:14:06;;;;;;;;;;;;;;;10.79;52.89;97079.25;4207401;28;6306;-72
2023/03/04 13:16:31;;;;;;;;;;;;;;;10.79;52.96;97073.97;4214690;28;5677;-72
2023/03/04 13:18:36;;;;;;;;;;;;;;;10.84;52.82;97070.75;4215309;28;5831;-72
2023/03/04 13:20:41;;;;;;;;;;;;;;;10.84;52.93;97067.28;4213985;28;5617;-72
2023/03/04 13:22:47;;;;;;;;;;;;;;;10.85;52.43;97056.50;4218105;28;5609;-72
2023/03/04 13:24:51;;;;;;;;;;;;;;;10.86;52.71;97058.16;4210325;28;5629;-72
2023/03/04 13:26:54;;;;;;;;;;;;;;;10.87;52.37;97057.13;4217456;28;5624;-72
2023/03/04 13:29:32;;;;;;;;;;;;;;;10.90;52.40;97048.84;4206302;28;5743;-73
2023/03/04 13:31:59;;;;;;;;;;;;;;;10.93;52.63;97050.28;4205537;28;5704;-73
2023/03/04 13:34:04;;;;;;;;;;;;;;;10.96;52.12;97058.66;4193551;28;5235;-72
2023/03/04 13:36:27;;;;;;;;;;;;;;;10.95;52.28;97046.44;4211473;28;5743;-72
2023/03/04 13:38:36;;;;;;;;;;;;;;;10.96;52.44;97049.91;4202689;28;5703;-73
2023/03/04 13:40:39;;;;;;;;;;;;;;;10.99;52.23;97053.00;4205216;28;5803;-72
2023/03/04 13:42:44;;;;;;;;;;;;;;;11.00;52.51;97048.53;4210595;28;5675;-71
2023/03/04 13:45:01;;;;;;;;;;;;;;;11.00;52.21;97045.91;4213126;28;5915;-72
2023/03/04 13:47:13;;;;;;;;;;;;;;;11.01;52.22;97048.34;4210682;28;5716;-72
2023/03/04 13:49:22;;;;;;;;;;;;;;;10.99;52.39;97047.72;4211915;28;5794;-73
2023/03/04 13:51:27;;;;;;;;;;;;;;;10.99;52.51;97045.06;4209253;28;5997;-72
2023/03/04 13:53:40;;;;;;;;;;;;;;;11.01;52.05;97036.94;4216254;28;5755;-72
2023/03/04 13:55:43;;;;;;;;;;;;;;;11.02;52.02;97042.03;4212131;28;5754;-72
2023/03/04 13:57:49;;;;;;;;;;;;;;;11.05;52.14;97046.94;4211969;28;5628;-72
2023/03/04 13:59:56;;;;;;;;;;;;;;;11.08;52.08;97045.75;4208741;28;5593;-72
2023/03/04 14:02:13;;;;;;;;;;;;;;;11.12;51.78;97040.91;4208573;28;5640;-73
2023/03/04 14:04:20;;;;;;;;;;;;;;;11.10;51.88;97033.16;4208850;28;6003;-72
2023/03/04 14:06:24;;;;;;;;;;;;;;;11.07;51.85;97034.34;4208114;28;5695;-72
2023/03/04 14:08:27;;;;;;;;;;;;;;;11.09;51.75;97034.97;4202865;28;5823;-73
2023/03/04 14:10:30;;;;;;;;;;;;;;;11.11;52.11;97040.09;4203969;28;5752;-73
2023/03/04 14:12:35;;;;;;;;;;;;;;;11.12;51.63;97027.69;4210222;28;5730;-73
2023/03/04 14:14:45;;;;;;;;;;;;;;;11.12;51.74;97030.31;4214931;28;5857;-73
2023/03/04 14:16:52;;;;;;;;;;;;;;;11.12;51.64;97028.50;4208579;28;5816;-73
2023/03/04 14:19:02;;;;;;;;;;;;;;;11.12;51.82;97038.25;4208991;28;5770;-71
2023/03/04 14:21:06;;;;;;;;;;;;;;;11.11;51.81;97028.69;4207406;28;5767;-72
2023/03/04 14:23:24;;;;;;;;;;;;;;;11.13;52.06;97021.38;4210727;28;5629;-72
2023/03/04 14:25:29;;;;;;;;;;;;;;;11.16;51.93;97026.28;4213487;28;5818;-72
2023/03/04 14:27:35;;;;;;;;;;;;;;;11.18;52.02;97019.78;4211245;28;6645;-72
2023/03/04 14:29:38;;;;;;;;;;;;;;;11.19;51.50;97020.59;4209250;28;5751;-72
2023/03/04 14:31:40;;;;;;;;;;;;;;;11.22;51.68;97020.25;4210312;28;5700;-72
2023/03/04 14:33:48;;;;;;;;;;;;;;;11.23;51.70;97013.94;4211715;28;5625;-72
2023/03/04 14:35:55;;;;;;;;;;;;;;;11.23;51.52;97006.00;4205817;28;5683;-72
2023/03/04 14:38:01;;;;;;;;;;;;;;;11.26;51.70;97005.59;4208868;28;6435;-73
2023/03/04 14:40:05;;;;;;;;;;;;;;;11.27;51.49;97009.88;4202734;28;5875;-72
2023/03/04 14:42:12;;;;;;;;;;;;;;;11.28;51.46;97003.56;4210852;28;5828;-71
2023/03/04 14:44:24;;;;;;;;;;;;;;;11.28;51.31;97008.88;4201032;28;5700;-72
2023/03/04 14:46:33;;;;;;;;;;;;;;;11.28;51.36;97000.94;4209493;28;6424;-72
2023/03/04 14:48:36;;;;;;;;;;;;;;;11.29;51.35;97005.22;4212613;28;5891;-72
2023/03/04 14:50:48;;;;;;;;;;;;;;;11.29;51.40;96991.97;4204043;28;5534;-73
2023/03/04 14:53:13;;;;;;;;;;;;;;;11.30;51.36;96996.25;4215637;28;5703;-72
2023/03/04 14:55:21;;;;;;;;;;;;;;;11.31;51.14;96995.25;4207591;28;5823;-72
2023/03/04 14:57:26;;;;;;;;;;;;;;;11.33;50.94;96995.91;4215793;28;6314;-72
2023/03/04 14:59:30;;;;;;;;;;;;;;;11.35;51.22;96989.38;4208034;28;5620;-73
2023/03/04 15:01:35;;;;;;;;;;;;;;;11.37;51.10;96986.53;4206821;28;5790;-73
2023/03/04 15:03:38;;;;;;;;;;;;;;;11.38;50.93;96986.34;4202900;28;5704;-73
2023/03/04 15:05:41;;;;;;;;;;;;;;;11.41;50.72;96989.63;4208335;28;5977;-71
2023/03/04 15:07:52;;;;;;;;;;;;;;;11.41;51.04;96992.25;4213291;28;5632;-73
2023/03/04 15:09:55;;;;;;;;;;;;;;;11.39;50.97;96981.88;4205042;28;6508;-76
2023/03/04 15:12:02;;;;;;;;;;;;;;;11.42;50.76;96984.13;4210852;28;5665;-75
2023/03/04 15:14:05;;;;;;;;;;;;;;;11.44;50.75;96981.28;4203930;28;5635;-75
2023/03/04 15:16:12;;;;;;;;;;;;;;;11.45;50.75;96989.06;4209862;28;5863;-74
2023/03/04 15:18:24;;;;;;;;;;;;;;;11.45;50.79;96985.59;4210589;28;5613;-73
2023/03/04 15:20:29;;;;;;;;;;;;;;;11.42;50.52;96973.53;4209131;28;5782;-73
2023/03/04 15:22:32;;;;;;;;;;;;;;;11.41;50.64;96976.38;4214357;28;5781;-73
2023/03/04 15:24:37;;;;;;;;;;;;;;;11.38;50.71;96972.28;4206951;28;5892;-73
2023/03/04 15:26:42;;;;;;;;;;;;;;;11.39;50.80;96979.22;4202739;28;5707;-74
2023/03/04 15:28:46;;;;;;;;;;;;;;;11.40;50.87;96970.28;4200038;28;5841;-72
2023/03/04 15:30:49;;;;;;;;;;;;;;;11.41;50.79;96966.59;4207649;28;6456;-71
2023/03/04 15:32:53;;;;;;;;;;;;;;;11.40;50.60;96969.44;4200191;28;5735;-71
2023/03/04 15:34:55;;;;;;;;;;;;;;;11.39;50.99;96971.28;4203604;28;5747;-70
2023/03/04 15:36:59;;;;;;;;;;;;;;;11.43;50.45;96969.06;4201524;28;6523;-71
2023/03/04 15:39:02;;;;;;;;;;;;;;;11.44;50.60;96963.59;4208038;28;6305;-71
2023/03/04 15:41:06;;;;;;;;;;;;;;;11.47;50.33;96968.50;4210745;28;6322;-71
2023/03/04 15:43:13;;;;;;;;;;;;;;;11.46;50.62;96963.41;4213746;28;5629;-71
2023/03/04 15:45:22;;;;;;;;;;;;;;;11.46;50.56;96969.50;4207229;28;5822;-71
2023/03/04 15:47:25;;;;;;;;;;;;;;;11.48;50.54;96972.78;4207794;28;5752;-69
2023/03/04 15:49:28;;;;;;;;;;;;;;;11.48;50.25;96966.66;4201160;28;5734;-68
2023/03/04 15:51:31;;;;;;;;;;;;;;;11.49;50.35;96965.66;4205347;28;5617;-65
2023/03/04 15:53:38;;;;;;;;;;;;;;;11.48;50.28;96959.53;4206257;28;6611;-67
2023/03/04 15:55:45;;;;;;;;;;;;;;;11.47;49.95;96960.56;4200829;28;5604;-86
2023/03/04 15:57:55;;;;;;;;;;;;;;;11.47;50.19;96962.38;4212273;28;5127;-75
2023/03/04 15:59:58;;;;;;;;;;;;;;;11.47;50.05;96955.25;4202790;28;5810;-69
2023/03/04 16:02:00;;;;;;;;;;;;;;;11.49;49.97;96949.75;4205356;28;5702;-73
2023/03/04 16:04:03;;;;;;;;;;;;;;;11.48;50.00;96958.72;4217268;28;5625;-71
2023/03/04 16:06:10;;;;;;;;;;;;;;;11.49;50.29;96949.75;4211428;28;5627;-75
2023/03/04 16:08:15;;;;;;;;;;;;;;;11.50;50.11;96957.50;4209488;28;5690;-67
2023/03/04 16:10:22;;;;;;;;;;;;;;;11.49;49.72;96958.53;4207969;28;5608;-70
2023/03/04 16:12:27;;;;;;;;;;;;;;;11.50;49.84;96960.16;4211764;28;5722;-72
2023/03/04 16:14:31;;;;;;;;;;;;;;;11.51;49.92;96964.44;4210821;28;5763;-66
2023/03/04 16:16:34;;;;;;;;;;;;;;;11.51;49.68;96953.84;4213344;28;5775;-72
2023/03/04 16:18:38;;;;;;;;;;;;;;;11.54;49.44;96957.94;4204545;28;5746;-68
2023/03/04 16:20:44;;;;;;;;;;;;;;;11.54;49.59;96963.22;4211636;28;5842;-65
2023/03/04 16:22:54;;;;;;;;;;;;;;;11.51;49.42;96951.19;4209215;28;5735;-66
2023/03/04 16:24:57;;;;;;;;;;;;;;;11.50;49.70;96954.03;4216658;28;5794;-76
2023/03/04 16:27:00;;;;;;;;;;;;;;;11.49;49.80;96960.34;4209082;28;5623;-64
2023/03/04 16:29:03;;;;;;;;;;;;;;;11.49;49.70;96952.41;4212656;28;5613;-66
2023/03/04 16:31:07;;;;;;;;;;;;;;;11.47;49.49;96965.84;4211343;28;5739;-66
2023/03/04 16:33:11;;;;;;;;;;;;;;;11.46;49.46;96966.84;4208004;28;5682;-65
2023/03/04 16:35:18;;;;;;;;;;;;;;;11.45;49.44;96952.00;4206314;28;7433;-67
2023/03/04 16:37:21;;;;;;;;;;;;;;;11.44;49.74;96960.94;4207996;28;5787;-77
2023/03/04 16:39:25;;;;;;;;;;;;;;;11.44;49.63;96953.00;4209707;28;5612;-70
2023/03/04 16:41:29;;;;;;;;;;;;;;;11.45;49.65;96951.19;4208980;28;5640;-66
2023/03/04 16:43:32;;;;;;;;;;;;;;;11.52;49.37;96952.81;4206028;28;5651;-66
2023/03/04 16:45:36;;;;;;;;;;;;;;;11.53;49.19;96961.59;4209266;28;5835;-66
2023/03/04 16:47:40;;;;;;;;;;;;;;;11.52;49.50;96952.81;4207421;28;5628;-73
2023/03/04 16:49:43;;;;;;;;;;;;;;;11.53;49.46;96959.75;4215854;28;5752;-67
2023/03/04 16:51:49;;;;;;;;;;;;;;;11.53;49.41;96953.66;4208269;28;5944;-67
2023/03/04 16:53:55;;;;;;;;;;;;;;;11.53;49.48;96957.09;4209716;28;5677;-67
2023/03/04 16:55:58;;;;;;;;;;;;;;;11.56;49.42;96961.22;4211501;28;5709;-67
2023/03/04 16:58:01;;;;;;;;;;;;;;;11.60;49.29;96957.16;4207606;28;5612;-67
2023/03/04 17:00:06;;;;;;;;;;;;;;;11.66;49.15;96961.66;4212300;28;5724;-63
2023/03/04 17:02:13;;;;;;;;;;;;;;;11.70;48.53;96954.16;4211638;28;5716;-63
2023/03/04 17:04:17;;;;;;;;;;;;;;;11.76;48.56;96953.34;4212114;28;5763;-69
2023/03/04 17:06:21;;;;;;;;;;;;;;;11.79;48.51;96955.63;4209636;28;5660;-70
2023/03/04 17:08:24;;;;;;;;;;;;;;;11.79;48.59;96960.94;4205853;28;5734;-71
2023/03/04 17:10:27;;;;;;;;;;;;;;;11.78;48.35;96956.63;4214664;28;5608;-70
2023/03/04 17:12:30;;;;;;;;;;;;;;;11.78;48.09;96954.81;4210754;28;5703;-70
2023/03/04 17:14:33;;;;;;;;;;;;;;;11.81;48.25;96964.22;4205244;28;5785;-68
2023/03/04 17:16:36;;;;;;;;;;;;;;;11.82;47.95;96963.22;4212008;28;6428;-65
2023/03/04 17:18:40;;;;;;;;;;;;;;;11.82;48.00;96969.31;4207839;28;5645;-66
2023/03/04 17:20:44;;;;;;;;;;;;;;;11.84;47.79;96967.28;4209889;28;5658;-67
2023/03/04 17:22:47;;;;;;;;;;;;;;;11.84;47.72;96962.00;4208245;28;5711;-64
2023/03/04 17:24:50;;;;;;;;;;;;;;;11.85;47.64;96965.47;4216577;28;5653;-66
2023/03/04 17:26:52;;;;;;;;;;;;;;;11.86;47.98;96965.25;4198678;28;5724;-65
2023/03/04 17:28:55;;;;;;;;;;;;;;;11.84;47.65;96963.81;4210143;28;5639;-69
2023/03/04 17:30:58;;;;;;;;;;;;;;;11.83;47.90;96964.84;4205903;28;5609;-65
2023/03/04 17:33:01;;;;;;;;;;;;;;;11.83;47.63;96970.13;4210061;28;5787;-70
2023/03/04 17:35:05;;;;;;;;;;;;;;;11.83;47.69;96970.97;4209768;28;5747;-67
2023/03/04 17:37:12;;;;;;;;;;;;;;;11.81;47.80;96972.19;4211725;28;5709;-66
2023/03/04 17:39:15;;;;;;;;;;;;;;;11.79;47.43;96975.03;4209072;28;6880;-68
2023/03/04 17:41:18;;;;;;;;;;;;;;;11.80;47.76;96971.34;4208378;28;5886;-68
2023/03/04 17:43:21;;;;;;;;;;;;;;;11.80;47.43;96981.13;4215434;28;5867;-68
2023/03/04 17:45:24;;;;;;;;;;;;;;;11.79;47.61;96980.31;4204470;28;5620;-72
2023/03/04 17:47:27;;;;;;;;;;;;;;;11.79;47.39;96974.19;4202223;28;5794;-71
2023/03/04 17:49:29;;;;;;;;;;;;;;;11.78;47.26;96983.09;4209196;28;5694;-68
2023/03/04 17:51:35;;;;;;;;;;;;;;;11.78;47.15;96980.47;4181127;28;5717;-69
2023/03/04 17:53:39;;;;;;;;;;;;;;;11.78;47.33;96983.09;4173772;28;5708;-69
2023/03/04 17:55:49;;;;;;;;;;;;;;;11.77;47.19;96976.19;4176081;28;5730;-69
2023/03/04 17:57:54;;;;;;;;;;;;;;;11.76;47.23;96975.38;4179830;28;5895;-68
2023/03/04 17:59:57;;;;;;;;;;;;;;;11.74;47.26;96971.28;4183785;28;5744;-69
2023/03/04 18:02:00;;;;;;;;;;;;;;;11.71;46.82;96971.69;4178290;28;8438;-69
2023/03/04 18:04:03;;;;;;;;;;;;;;;11.68;46.98;96978.19;4178851;28;5716;-69
2023/03/04 18:06:06;;;;;;;;;;;;;;;11.65;46.67;96968.78;4182604;28;5720;-69
2023/03/04 18:08:10;;;;;;;;;;;;;;;11.65;46.89;96973.25;4180513;28;5736;-70
2023/03/04 18:10:15;;;;;;;;;;;;;;;11.62;46.73;96969.19;4177730;28;5728;-68
2023/03/04 18:12:18;;;;;;;;;;;;;;;11.62;46.79;96969.19;4183162;28;5930;-68
2023/03/04 18:14:21;;;;;;;;;;;;;;;11.62;46.58;96969.19;4178452;28;6676;-69
2023/03/04 18:16:25;;;;;;;;;;;;;;;11.60;46.79;96968.56;4182412;28;5931;-69
2023/03/04 18:18:28;;;;;;;;;;;;;;;11.59;46.74;96971.41;4179669;28;5727;-68
2023/03/04 18:20:33;;;;;;;;;;;;;;;11.54;46.31;96961.38;4176846;28;5827;-64
2023/03/04 18:22:35;;;;;;;;;;;;;;;11.53;46.38;96967.69;4177874;28;5848;-63
2023/03/04 18:24:40;;;;;;;;;;;;;;;11.52;46.64;96966.06;4179776;28;5995;-63
2023/03/04 18:26:44;;;;;;;;;;;;;;;11.50;46.64;96960.16;4181952;28;5865;-67
2023/03/04 18:28:47;;;;;;;;;;;;;;;11.49;46.68;96965.66;4182791;28;5750;-66
2023/03/04 18:30:50;;;;;;;;;;;;;;;11.47;46.20;96965.84;4177380;28;5796;-66
2023/03/04 18:32:54;;;;;;;;;;;;;;;11.46;46.44;96966.03;4180386;28;5794;-67
2023/03/04 18:34:57;;;;;;;;;;;;;;;11.45;46.23;96961.75;4177797;28;5820;-66
2023/03/04 18:37:00;;;;;;;;;;;;;;;11.44;46.47;96966.25;4177259;28;5746;-69
2023/03/04 18:39:06;;;;;;;;;;;;;;;11.43;46.51;96967.22;4172053;28;5832;-63
2023/03/04 18:41:11;;;;;;;;;;;;;;;11.44;46.42;96960.09;4175129;28;5140;-65
2023/03/04 18:43:15;;;;;;;;;;;;;;;11.41;45.99;96958.66;4178121;28;5814;-66
2023/03/04 18:45:20;;;;;;;;;;;;;;;11.38;46.03;96961.72;4171814;28;5730;-66
2023/03/04 18:47:23;;;;;;;;;;;;;;;11.39;45.92;96960.69;4174712;28;5926;-67
2023/03/04 18:49:27;;;;;;;;;;;;;;;11.38;46.09;96961.72;4180173;28;5716;-74
2023/03/04 18:51:30;;;;;;;;;;;;;;;11.37;45.98;96965.38;4198050;28;5755;-68
2023/03/04 18:53:33;;;;;;;;;;;;;;;11.36;45.86;96963.75;4211446;28;5769;-74
2023/03/04 18:55:36;;;;;;;;;;;;;;;11.33;46.19;96958.84;4215877;28;5709;-68
2023/03/04 18:57:39;;;;;;;;;;;;;;;11.33;46.08;96964.13;4208676;28;5718;-67
2023/03/04 18:59:50;;;;;;;;;;;;;;;11.31;45.98;96966.94;4215169;28;5628;-69
2023/03/04 19:01:54;;;;;;;;;;;;;;;11.29;46.13;96960.22;4207433;28;5811;-66
2023/03/04 19:04:01;;;;;;;;;;;;;;;11.28;46.10;96958.59;4211979;28;5605;-66
2023/03/04 19:06:06;;;;;;;;;;;;;;;11.28;45.93;96961.22;4213916;28;6566;-67